Zaltbommel, Netherlands
Current Conditions -  °F | °C
As of 8:25 AM on Saturday 25 Oct 2014 (Local Time) from EHGR Reporting Station
Haze Haze  
Wind Chill: 55°   Ceiling: 300
Heat Index: 55°   Visibility: 1.7mi
Dew Point: 54°   Wind: 7mph
Humidity: 94%   Direction: 220°SW
Pressure: 30"   Gusts: NA
Location:  51.81°N, 5.24°E
Report Text: EHGR 250625Z AUTO 22006KT 2800 BR OVC003 13/12 Q1016 YLO
Loading
Personal Weather Stations






























Interactive Weather Map
Tropical Storm Tracking
New forecast layout! Learn more

10-Day Weather Forecast

Advertisements
Track Severe Weather on mobile